createdAt,value
2022-12-22T00:01:30.561Z,24.05
2022-12-22T00:04:34.782Z,24.10
2022-12-22T00:07:38.515Z,19.40
2022-12-22T00:13:46.583Z,18.15
2022-12-22T00:16:53.179Z,18.38
2022-12-22T00:19:57.309Z,16.50
2022-12-22T00:23:01.501Z,21.00
2022-12-22T00:26:06.247Z,16.83
2022-12-22T00:29:10.366Z,17.63
2022-12-22T00:32:14.303Z,21.02
2022-12-22T00:35:18.873Z,20.10
2022-12-22T00:38:35.551Z,18.90
2022-12-22T00:41:39.542Z,20.63
2022-12-22T00:44:43.654Z,15.95
2022-12-22T00:47:49.719Z,18.67
2022-12-22T00:50:55.069Z,15.80
2022-12-22T00:53:59.041Z,17.80
2022-12-22T00:57:02.959Z,25.05
2022-12-22T01:00:09.018Z,17.17
2022-12-22T01:03:12.962Z,18.77
2022-12-22T01:06:19.439Z,16.55
2022-12-22T01:09:24.484Z,20.15
2022-12-22T01:12:42.002Z,19.83
2022-12-22T01:15:48.061Z,19.05
2022-12-22T01:18:52.121Z,16.95
2022-12-22T01:21:56.001Z,18.20
2022-12-22T01:24:59.988Z,14.90
2022-12-22T01:28:04.180Z,15.13
2022-12-22T01:31:08.720Z,17.73
2022-12-22T01:34:12.574Z,16.88
2022-12-22T01:37:16.452Z,17.60
2022-12-22T01:40:20.435Z,19.35
2022-12-22T01:43:37.762Z,15.70
2022-12-22T01:46:50.929Z,19.67
2022-12-22T01:50:00.821Z,23.70
2022-12-22T01:53:04.827Z,19.15
2022-12-22T01:56:08.899Z,18.05
2022-12-22T01:59:15.905Z,18.42
2022-12-22T02:02:23.475Z,21.50
2022-12-22T02:05:29.359Z,18.60
2022-12-22T02:08:46.827Z,19.38
2022-12-22T02:12:21.446Z,18.25
2022-12-22T02:15:44.247Z,19.52
2022-12-22T02:18:59.055Z,19.15
2022-12-22T02:22:21.787Z,16.42
2022-12-22T02:25:45.534Z,16.00
2022-12-22T02:28:51.899Z,19.25
2022-12-22T02:31:57.758Z,20.63
2022-12-22T02:35:02.486Z,21.50
2022-12-22T02:38:34.846Z,20.40
2022-12-22T02:41:41.926Z,19.38
2022-12-22T02:45:19.001Z,16.70
2022-12-22T02:48:31.259Z,18.20
2022-12-22T02:51:44.350Z,18.17
2022-12-22T02:54:49.995Z,19.75
2022-12-22T02:57:53.850Z,20.95
2022-12-22T03:00:58.209Z,17.95
2022-12-22T03:04:02.325Z,21.88
2022-12-22T03:07:06.245Z,22.02
2022-12-22T03:10:10.125Z,25.92
2022-12-22T03:16:20.750Z,20.33
2022-12-22T03:19:24.507Z,27.17
2022-12-22T03:22:28.559Z,17.90
2022-12-22T03:25:33.014Z,15.60
2022-12-22T03:28:19.099Z,19.08
2022-12-22T03:31:06.258Z,20.45
2022-12-22T03:33:51.765Z,25.00
2022-12-22T03:36:37.120Z,19.83
2022-12-22T03:39:22.525Z,18.80
2022-12-22T03:42:30.420Z,21.27
2022-12-22T03:45:34.491Z,22.05
2022-12-22T03:51:05.177Z,19.83
2022-12-22T03:53:50.703Z,23.63
2022-12-22T03:56:37.045Z,24.73
2022-12-22T03:59:22.689Z,27.83
2022-12-22T04:02:08.344Z,19.88
2022-12-22T04:04:53.743Z,26.52
2022-12-22T04:07:39.608Z,20.48
2022-12-22T04:10:43.856Z,20.05
2022-12-22T04:13:29.819Z,27.27
2022-12-22T04:16:15.640Z,27.00
2022-12-22T04:19:02.160Z,30.48
2022-12-22T04:21:48.470Z,25.88
2022-12-22T04:24:34.255Z,27.42
2022-12-22T04:27:19.915Z,29.23
2022-12-22T04:30:06.784Z,25.40
2022-12-22T04:32:51.889Z,58.88
2022-12-22T04:35:37.520Z,28.15
2022-12-22T04:38:23.093Z,29.13
2022-12-22T04:41:09.119Z,30.33
2022-12-22T04:43:54.539Z,30.48
2022-12-22T04:46:39.824Z,32.25
2022-12-22T04:49:25.433Z,25.73
2022-12-22T04:52:11.286Z,27.85
2022-12-22T04:54:56.546Z,24.90
2022-12-22T04:57:41.891Z,24.40
2022-12-22T05:00:27.498Z,30.45
2022-12-22T05:03:12.878Z,22.83
2022-12-22T05:05:58.525Z,24.70
2022-12-22T05:08:44.022Z,20.85
2022-12-22T05:11:29.767Z,21.27
2022-12-22T05:14:15.496Z,22.35
2022-12-22T05:17:00.986Z,17.02
2022-12-22T05:19:46.322Z,24.40
2022-12-22T05:22:31.680Z,20.48
2022-12-22T05:25:18.061Z,22.00
2022-12-22T05:28:03.459Z,19.23
2022-12-22T05:30:48.707Z,24.88
2022-12-22T05:33:34.285Z,20.50
2022-12-22T05:36:20.036Z,22.58
2022-12-22T05:39:05.361Z,20.58
2022-12-22T05:41:50.761Z,30.90
2022-12-22T05:44:36.561Z,21.10
2022-12-22T05:47:22.083Z,19.50
2022-12-22T05:50:08.661Z,21.73
2022-12-22T05:52:55.033Z,18.58
2022-12-22T05:55:40.567Z,20.45
2022-12-22T05:58:26.220Z,18.75
2022-12-22T06:01:11.866Z,21.38
2022-12-22T06:04:00.371Z,23.33
2022-12-22T06:06:46.552Z,19.63
2022-12-22T06:09:32.174Z,19.13
2022-12-22T06:12:17.530Z,23.65
2022-12-22T06:15:04.209Z,17.73
2022-12-22T06:17:49.796Z,18.55
2022-12-22T06:20:35.467Z,22.75
2022-12-22T06:23:22.331Z,15.75
2022-12-22T06:26:09.071Z,18.42
2022-12-22T06:28:54.963Z,16.27
2022-12-22T06:31:40.495Z,13.90
2022-12-22T06:34:26.025Z,13.50
2022-12-22T06:37:11.756Z,13.43
2022-12-22T06:39:57.224Z,15.02
2022-12-22T06:43:08.033Z,13.07
2022-12-22T06:45:54.339Z,14.05
2022-12-22T06:48:40.216Z,14.05
2022-12-22T06:51:25.801Z,18.05
2022-12-22T06:54:11.326Z,12.18
2022-12-22T06:56:56.979Z,12.85
2022-12-22T06:59:42.677Z,9.00
2022-12-22T07:02:28.303Z,11.55
2022-12-22T07:05:15.620Z,11.88
2022-12-22T07:08:07.792Z,12.50
2022-12-22T07:11:00.203Z,12.43
2022-12-22T07:13:46.123Z,16.48
2022-12-22T07:16:31.446Z,11.95
2022-12-22T07:19:17.217Z,15.52
2022-12-22T07:22:04.103Z,11.10
2022-12-22T07:24:50.272Z,10.40
2022-12-22T07:27:35.630Z,11.80
2022-12-22T07:30:21.517Z,16.98
2022-12-22T07:33:06.879Z,14.90
2022-12-22T07:36:04.107Z,12.23
2022-12-22T07:38:51.217Z,20.50
2022-12-22T07:41:54.856Z,14.30
2022-12-22T07:44:40.347Z,12.18
2022-12-22T07:47:30.072Z,12.00
2022-12-22T07:50:32.935Z,14.95
2022-12-22T07:53:18.387Z,12.23
2022-12-22T07:56:05.334Z,14.52
2022-12-22T07:58:50.597Z,15.30
2022-12-22T08:01:36.567Z,15.93
2022-12-22T08:04:22.739Z,14.00
2022-12-22T08:07:08.668Z,12.85
2022-12-22T08:09:54.370Z,13.68
2022-12-22T08:12:39.831Z,11.80
2022-12-22T08:15:25.813Z,15.02
2022-12-22T08:18:11.418Z,13.63
2022-12-22T08:20:56.750Z,12.95
2022-12-22T08:23:42.561Z,12.30
2022-12-22T08:26:38.596Z,13.73
2022-12-22T08:29:37.838Z,14.48
2022-12-22T08:32:23.381Z,13.70
2022-12-22T08:35:10.686Z,14.50
2022-12-22T08:37:56.289Z,16.42
2022-12-22T08:40:45.425Z,16.30
2022-12-22T08:43:33.587Z,17.13
2022-12-22T08:46:19.167Z,16.50
2022-12-22T08:49:04.642Z,17.23
2022-12-22T08:51:51.205Z,19.98
2022-12-22T08:54:36.629Z,18.50
2022-12-22T08:57:23.116Z,21.40
2022-12-22T09:00:10.881Z,21.67
2022-12-22T09:02:56.506Z,14.18
2022-12-22T09:05:42.502Z,13.38
2022-12-22T09:08:28.248Z,13.75
2022-12-22T09:11:13.767Z,11.45
2022-12-22T09:14:01.314Z,11.60
2022-12-22T09:16:46.620Z,12.90
2022-12-22T09:19:32.117Z,11.43
2022-12-22T09:22:23.419Z,14.82
2022-12-22T09:25:14.213Z,14.77
2022-12-22T09:27:59.783Z,15.35
2022-12-22T09:30:53.278Z,13.55
2022-12-22T09:33:38.876Z,16.60
2022-12-22T09:36:27.039Z,17.48
2022-12-22T09:39:13.227Z,14.95
2022-12-22T09:41:59.392Z,16.15
2022-12-22T09:44:47.272Z,17.63
2022-12-22T09:47:38.816Z,18.10
2022-12-22T09:50:26.568Z,17.30
2022-12-22T09:53:21.414Z,14.73
2022-12-22T09:56:11.418Z,18.30
2022-12-22T09:58:58.349Z,16.98
2022-12-22T10:01:50.000Z,16.35
2022-12-22T10:04:44.578Z,16.33
2022-12-22T10:07:40.125Z,14.90
2022-12-22T10:10:28.555Z,11.52
2022-12-22T10:13:18.716Z,13.95
2022-12-22T10:16:24.587Z,13.30
2022-12-22T10:19:12.545Z,17.15
2022-12-22T10:22:18.353Z,14.23
2022-12-22T10:25:06.240Z,15.52
2022-12-22T10:27:52.775Z,14.10
2022-12-22T10:31:43.296Z,16.17
2022-12-22T10:34:29.949Z,13.32
2022-12-22T10:37:15.505Z,16.63
2022-12-22T10:40:22.760Z,14.50
2022-12-22T10:43:08.082Z,15.27
2022-12-22T10:45:55.688Z,14.52
2022-12-22T10:48:41.388Z,21.45
2022-12-22T10:51:26.779Z,18.95
2022-12-22T10:54:34.123Z,29.65
2022-12-22T10:57:19.659Z,21.13
2022-12-22T11:00:26.912Z,20.45
2022-12-22T11:03:19.006Z,22.02
2022-12-22T11:06:13.288Z,31.77
2022-12-22T11:09:23.986Z,22.52
2022-12-22T11:12:12.991Z,26.90
2022-12-22T11:15:18.643Z,28.98
2022-12-22T11:18:35.461Z,24.92
2022-12-22T11:21:41.881Z,20.67
2022-12-22T11:24:59.312Z,21.35
2022-12-22T11:27:46.254Z,23.60
2022-12-22T11:31:10.700Z,17.92
2022-12-22T11:34:24.967Z,21.65
2022-12-22T11:37:31.570Z,19.15
2022-12-22T11:40:32.533Z,28.92
2022-12-22T11:43:44.784Z,19.23
2022-12-22T11:46:44.559Z,24.77
2022-12-22T11:49:42.785Z,22.45
2022-12-22T11:52:46.877Z,19.05
2022-12-22T11:55:43.444Z,15.63
2022-12-22T11:58:47.460Z,13.73
2022-12-22T12:01:41.942Z,16.25
2022-12-22T12:04:55.703Z,16.48
2022-12-22T12:08:16.043Z,19.58
2022-12-22T12:11:31.006Z,13.95
2022-12-22T12:14:48.558Z,15.00
2022-12-22T12:18:00.921Z,16.90
2022-12-22T12:21:09.212Z,13.63
2022-12-22T12:24:07.553Z,18.98
2022-12-22T12:27:08.389Z,16.20
2022-12-22T12:33:42.151Z,14.30
2022-12-22T12:36:42.138Z,16.88
2022-12-22T12:39:41.352Z,14.43
2022-12-22T12:42:54.171Z,14.30
2022-12-22T12:45:46.032Z,22.42
2022-12-22T12:48:34.296Z,18.73
2022-12-22T12:51:45.771Z,16.30
2022-12-22T12:54:49.973Z,18.67
2022-12-22T12:57:50.280Z,15.10
2022-12-22T13:00:35.561Z,21.67
2022-12-22T13:03:53.337Z,17.38
2022-12-22T13:06:51.893Z,16.17
2022-12-22T13:10:07.788Z,19.73
2022-12-22T13:12:54.904Z,23.33
2022-12-22T13:15:42.966Z,23.83
2022-12-22T13:18:34.268Z,21.02
2022-12-22T13:24:37.044Z,20.42
2022-12-22T13:27:23.471Z,19.38
2022-12-22T13:30:15.639Z,20.38
2022-12-22T13:33:02.350Z,25.23
2022-12-22T13:35:54.944Z,19.83
2022-12-22T13:38:42.203Z,24.95
2022-12-22T13:41:28.815Z,24.83
2022-12-22T13:44:28.478Z,21.70
2022-12-22T13:47:15.361Z,19.40
2022-12-22T13:50:10.974Z,16.98
2022-12-22T13:52:58.019Z,21.95
2022-12-22T13:55:48.036Z,20.85
2022-12-22T13:58:39.664Z,23.55
2022-12-22T14:01:26.515Z,23.95
2022-12-22T14:04:13.466Z,24.55
2022-12-22T14:07:13.882Z,28.75
2022-12-22T14:09:59.534Z,34.63
2022-12-22T14:12:47.247Z,24.73
2022-12-22T14:15:33.099Z,23.20
2022-12-22T14:18:23.385Z,21.27
2022-12-22T14:21:10.040Z,24.33
2022-12-22T14:23:56.385Z,27.27
2022-12-22T14:26:43.138Z,20.40
2022-12-22T14:29:30.362Z,17.45
2022-12-22T14:32:41.117Z,23.35
2022-12-22T14:35:31.658Z,21.65
2022-12-22T14:38:23.789Z,20.95
2022-12-22T14:41:42.887Z,21.90
2022-12-22T14:44:32.287Z,18.63
2022-12-22T14:47:21.177Z,24.40
2022-12-22T14:50:20.903Z,22.15
2022-12-22T14:53:06.698Z,22.05
2022-12-22T14:55:53.170Z,17.73
2022-12-22T14:58:42.192Z,16.13
2022-12-22T15:01:28.856Z,18.58
2022-12-22T15:04:17.988Z,20.13
2022-12-22T15:10:29.054Z,17.30
2022-12-22T15:13:23.944Z,22.13
2022-12-22T15:16:18.272Z,20.60
2022-12-22T15:19:05.336Z,15.02
2022-12-22T15:21:51.855Z,16.95
2022-12-22T15:24:37.762Z,17.15
2022-12-22T15:27:23.422Z,20.17
2022-12-22T15:30:09.914Z,16.08
2022-12-22T15:32:56.945Z,18.08
2022-12-22T15:35:43.775Z,14.75
2022-12-22T15:38:33.456Z,18.80
2022-12-22T15:41:22.403Z,15.38
2022-12-22T15:44:08.158Z,17.38
2022-12-22T15:46:56.531Z,16.90
2022-12-22T15:49:42.015Z,13.35
2022-12-22T15:52:27.492Z,23.35
2022-12-22T15:55:15.884Z,24.02
2022-12-22T15:58:01.531Z,21.77
2022-12-22T16:00:47.654Z,22.20
2022-12-22T16:03:33.251Z,19.42
2022-12-22T16:06:20.655Z,24.75
2022-12-22T16:09:12.714Z,23.00
2022-12-22T16:11:58.433Z,29.42
2022-12-22T16:14:50.561Z,25.60
2022-12-22T16:17:36.806Z,32.85
2022-12-22T16:20:25.857Z,30.98
2022-12-22T16:23:18.634Z,36.22
2022-12-22T16:26:05.122Z,31.15
2022-12-22T16:28:50.718Z,30.15
2022-12-22T16:31:36.000Z,34.88
2022-12-22T16:34:21.804Z,28.98
2022-12-22T16:37:07.945Z,44.33
2022-12-22T16:39:53.505Z,30.23
2022-12-22T16:45:47.159Z,35.67
2022-12-22T16:48:44.007Z,38.85
2022-12-22T16:51:34.649Z,41.53
2022-12-22T16:54:20.610Z,41.70
2022-12-22T16:57:06.095Z,45.17
2022-12-22T16:59:51.793Z,31.48
2022-12-22T17:02:37.691Z,36.38
2022-12-22T17:05:29.007Z,42.63
2022-12-22T17:08:23.546Z,43.30
2022-12-22T17:11:14.372Z,38.50
2022-12-22T17:14:06.864Z,35.78
2022-12-22T17:16:53.581Z,41.42
2022-12-22T17:19:39.808Z,41.28
2022-12-22T17:22:32.372Z,43.17
2022-12-22T17:25:26.344Z,43.33
2022-12-22T17:28:13.776Z,46.58
2022-12-22T17:30:59.527Z,34.65
2022-12-22T17:33:45.397Z,38.95
2022-12-22T17:36:36.814Z,35.97
2022-12-22T17:39:23.301Z,44.10
2022-12-22T17:42:35.128Z,44.47
2022-12-22T17:45:20.899Z,44.72
2022-12-22T17:48:07.113Z,41.72
2022-12-22T17:50:53.080Z,32.53
2022-12-22T17:53:41.062Z,39.08
2022-12-22T17:56:27.860Z,36.13
2022-12-22T17:59:13.623Z,43.30
2022-12-22T18:02:00.524Z,33.45
2022-12-22T18:04:47.512Z,32.63
2022-12-22T18:07:33.510Z,33.05
2022-12-22T18:10:32.369Z,33.88
2022-12-22T18:13:25.296Z,39.15
2022-12-22T18:16:15.105Z,26.98
2022-12-22T18:19:00.720Z,30.50
2022-12-22T18:21:46.479Z,32.38
2022-12-22T18:24:31.728Z,35.67
2022-12-22T18:27:17.999Z,35.80
2022-12-22T18:30:22.535Z,32.40
2022-12-22T18:33:08.253Z,27.88
2022-12-22T18:35:53.876Z,34.00
2022-12-22T18:38:39.484Z,30.25
2022-12-22T18:41:26.539Z,25.70
2022-12-22T18:44:16.825Z,26.45
2022-12-22T18:47:02.629Z,29.23
2022-12-22T18:49:48.028Z,31.67
2022-12-22T18:52:33.611Z,33.60
2022-12-22T18:55:24.917Z,23.48
2022-12-22T18:58:14.656Z,26.58
2022-12-22T19:01:00.304Z,29.15
2022-12-22T19:03:46.044Z,27.33
2022-12-22T19:06:31.934Z,27.55
2022-12-22T19:09:18.069Z,25.95
2022-12-22T19:12:03.722Z,37.03
2022-12-22T19:14:52.543Z,28.00
2022-12-22T19:17:38.286Z,30.05
2022-12-22T19:20:25.719Z,23.63
2022-12-22T19:23:21.701Z,26.92
2022-12-22T19:26:10.604Z,28.33
2022-12-22T19:29:01.471Z,30.00
2022-12-22T19:31:47.479Z,34.22
2022-12-22T19:34:32.926Z,30.58
2022-12-22T19:37:22.143Z,21.83
2022-12-22T19:40:08.632Z,26.90
2022-12-22T19:42:56.910Z,32.90
2022-12-22T19:45:43.125Z,32.42
2022-12-22T19:48:29.293Z,27.42
2022-12-22T19:51:17.789Z,26.52
2022-12-22T19:54:03.806Z,26.70
2022-12-22T19:56:52.765Z,21.83
2022-12-22T19:59:45.437Z,27.52
2022-12-22T20:02:33.368Z,31.27
2022-12-22T20:05:22.494Z,26.75
2022-12-22T20:08:07.986Z,26.05
2022-12-22T20:10:58.455Z,25.20
2022-12-22T20:13:45.906Z,22.00
2022-12-22T20:16:31.543Z,23.73
2022-12-22T20:19:17.024Z,31.65
2022-12-22T20:22:02.577Z,19.80
2022-12-22T20:24:49.932Z,17.52
2022-12-22T20:27:35.495Z,20.15
2022-12-22T20:30:20.911Z,17.13
2022-12-22T20:33:06.637Z,22.42
2022-12-22T20:35:53.874Z,21.35
2022-12-22T20:38:41.955Z,16.02
2022-12-22T20:41:27.940Z,20.88
2022-12-22T20:44:13.561Z,19.98
2022-12-22T20:46:58.862Z,20.25
2022-12-22T20:49:45.033Z,12.02
2022-12-22T20:52:30.440Z,15.05
2022-12-22T20:55:18.086Z,13.88
2022-12-22T20:58:14.478Z,10.43
2022-12-22T21:01:02.023Z,15.30
2022-12-22T21:03:47.753Z,17.67
2022-12-22T21:06:39.837Z,13.95
2022-12-22T21:09:25.972Z,13.38
2022-12-22T21:12:11.719Z,15.38
2022-12-22T21:14:57.468Z,13.73
2022-12-22T21:17:46.138Z,11.73
2022-12-22T21:20:32.401Z,12.23
2022-12-22T21:23:18.327Z,11.77
2022-12-22T21:26:08.083Z,10.23
2022-12-22T21:28:53.527Z,14.55
2022-12-22T21:31:38.834Z,14.73
2022-12-22T21:34:24.317Z,14.32
2022-12-22T21:37:17.470Z,11.02
2022-12-22T21:40:03.316Z,12.57
2022-12-22T21:42:52.066Z,13.27
2022-12-22T21:45:42.641Z,9.95
2022-12-22T21:48:29.247Z,10.30
2022-12-22T21:51:15.006Z,11.32
2022-12-22T21:54:01.465Z,5.80
2022-12-22T21:56:48.263Z,3.58
2022-12-22T21:59:33.868Z,3.90
2022-12-22T22:02:19.586Z,3.47
2022-12-22T22:05:05.702Z,5.75
2022-12-22T22:07:51.683Z,3.58
2022-12-22T22:10:39.818Z,4.05
2022-12-22T22:13:25.642Z,2.65
2022-12-22T22:16:11.052Z,7.60
2022-12-22T22:18:56.574Z,5.88
2022-12-22T22:21:41.980Z,7.45
2022-12-22T22:24:27.663Z,5.63
2022-12-22T22:27:13.453Z,2.85
2022-12-22T22:29:59.001Z,4.28
2022-12-22T22:32:45.097Z,1.85
2022-12-22T22:35:30.397Z,4.38
2022-12-22T22:38:17.730Z,2.30
2022-12-22T22:41:03.097Z,2.60
2022-12-22T22:43:48.687Z,3.13
2022-12-22T22:46:34.154Z,3.30
2022-12-22T22:49:26.251Z,3.55
2022-12-22T22:52:13.684Z,2.00
2022-12-22T22:54:59.352Z,2.80
2022-12-22T22:57:45.001Z,3.90
2022-12-22T23:00:30.875Z,1.80
2022-12-22T23:03:16.823Z,5.93
2022-12-22T23:06:08.241Z,1.85
2022-12-22T23:08:54.379Z,3.08
2022-12-22T23:11:39.711Z,3.90
2022-12-22T23:14:25.574Z,3.38
2022-12-22T23:17:11.188Z,3.63
2022-12-22T23:19:56.651Z,4.63
2022-12-22T23:22:41.922Z,3.42
2022-12-22T23:25:27.565Z,4.38
2022-12-22T23:28:13.283Z,5.60
2022-12-22T23:30:58.848Z,1.50
2022-12-22T23:33:44.570Z,2.20
2022-12-22T23:36:31.137Z,3.40
2022-12-22T23:39:17.312Z,4.88
2022-12-22T23:42:02.968Z,2.42
2022-12-22T23:44:48.617Z,3.47
2022-12-22T23:47:34.111Z,3.75
2022-12-22T23:50:19.705Z,6.57
2022-12-22T23:53:04.978Z,3.42
2022-12-22T23:55:50.595Z,1.98
2022-12-22T23:58:36.055Z,3.65
